Time;durP1;ratioP1;P1;durP2;ratioP2;P2;SDS_P1;SDS_P2;PMS_P1;PMS_P2;Temp;Humidity;BMP_temperature;BMP_pressure;BME280_temperature;BME280_humidity;BME280_pressure;Samples;Min_cycle;Max_cycle;Signal;HPM_P1;HPM_P2
2023/02/08 00:00:54;;;;;;;25.37;14.13;;;-2.20;99.90;;;;;;5144271;27;20191;-55
2023/02/08 00:03:21;;;;;;;22.53;14.33;;;-2.10;99.90;;;;;;5139270;27;20212;-53
2023/02/08 00:05:48;;;;;;;28.33;15.23;;;-2.10;99.90;;;;;;5143013;27;20199;-55
2023/02/08 00:08:15;;;;;;;25.57;14.63;;;-2.10;99.90;;;;;;5129406;27;20208;-55
2023/02/08 00:10:43;;;;;;;23.03;14.27;;;-2.20;99.90;;;;;;5128465;27;20304;-55
2023/02/08 00:13:09;;;;;;;23.83;14.57;;;-2.10;99.90;;;;;;5135620;27;20196;-55
2023/02/08 00:16:00;;;;;;;23.37;13.53;;;-2.10;99.90;;;;;;5146423;27;20227;-53
2023/02/08 00:18:27;;;;;;;21.90;13.27;;;-2.20;99.90;;;;;;5135272;27;20200;-52
2023/02/08 00:20:54;;;;;;;21.63;13.30;;;-2.20;99.90;;;;;;5145366;27;20200;-56
2023/02/08 00:23:21;;;;;;;23.23;13.23;;;-2.20;99.90;;;;;;5134076;27;20203;-51
2023/02/08 00:25:48;;;;;;;19.97;13.20;;;-2.10;99.90;;;;;;5130197;27;20243;-49
2023/02/08 00:28:17;;;;;;;22.63;13.43;;;-2.20;99.90;;;;;;5141871;27;20196;-52
2023/02/08 00:30:44;;;;;;;23.27;13.40;;;-2.10;99.90;;;;;;5121054;27;20212;-55
2023/02/08 00:33:12;;;;;;;20.13;12.73;;;-2.20;99.90;;;;;;5145656;27;20193;-53
2023/02/08 00:35:41;;;;;;;19.83;12.03;;;-2.10;99.90;;;;;;5118508;27;20885;-55
2023/02/08 00:38:08;;;;;;;21.30;13.10;;;-2.20;99.90;;;;;;5146105;27;20553;-55
2023/02/08 00:40:35;;;;;;;18.07;12.10;;;-2.10;99.90;;;;;;5100867;27;20223;-54
2023/02/08 00:43:02;;;;;;;24.83;13.17;;;-2.10;99.90;;;;;;5131485;27;20197;-56
2023/02/08 00:45:29;;;;;;;20.27;12.93;;;-2.20;99.90;;;;;;5134526;27;20224;-53
2023/02/08 00:47:56;;;;;;;19.80;13.13;;;-2.30;99.90;;;;;;5139360;27;20196;-54
2023/02/08 00:50:25;;;;;;;21.03;13.23;;;-2.30;99.90;;;;;;5129515;27;20701;-53
2023/02/08 00:52:51;;;;;;;23.07;12.53;;;-2.30;99.90;;;;;;5143388;27;20204;-54
2023/02/08 00:55:18;;;;;;;20.10;12.47;;;-2.30;99.90;;;;;;5129842;27;20218;-52
2023/02/08 00:57:45;;;;;;;20.10;12.43;;;-2.30;99.90;;;;;;5129777;27;20296;-56
2023/02/08 01:00:13;;;;;;;18.63;12.70;;;-2.30;99.90;;;;;;5138471;27;20195;-52
2023/02/08 01:02:40;;;;;;;20.70;13.20;;;-2.30;99.90;;;;;;5141380;27;20211;-51
2023/02/08 01:05:07;;;;;;;20.47;12.50;;;-2.40;99.90;;;;;;5145332;27;20249;-55
2023/02/08 01:07:58;;;;;;;18.13;12.07;;;-2.30;99.90;;;;;;5141727;27;20220;-54
2023/02/08 01:10:29;;;;;;;19.70;12.13;;;-2.40;99.90;;;;;;5125755;27;20291;-51
2023/02/08 01:12:57;;;;;;;22.17;12.47;;;-2.30;99.90;;;;;;5140696;27;20661;-53
2023/02/08 01:15:24;;;;;;;19.63;11.80;;;-2.30;99.90;;;;;;5135911;27;20195;-51
2023/02/08 01:17:53;;;;;;;21.57;12.03;;;-2.30;99.90;;;;;;5143573;27;20199;-54
2023/02/08 01:20:20;;;;;;;17.70;11.77;;;-2.30;99.90;;;;;;5140356;27;20200;-50
2023/02/08 01:22:47;;;;;;;17.87;11.87;;;-2.40;99.90;;;;;;5120376;27;20204;-51
2023/02/08 01:25:15;;;;;;;21.27;12.43;;;-2.40;99.90;;;;;;5144385;27;20192;-50
2023/02/08 01:27:42;;;;;;;19.67;12.43;;;-2.40;99.90;;;;;;5123290;27;20199;-55
2023/02/08 01:30:10;;;;;;;17.30;11.60;;;-2.50;99.90;;;;;;5115008;27;20201;-55
2023/02/08 01:32:37;;;;;;;19.03;11.93;;;-2.50;99.90;;;;;;5141032;27;20187;-54
2023/02/08 01:35:05;;;;;;;17.20;10.37;;;-2.50;99.90;;;;;;5121167;27;20219;-55
2023/02/08 01:37:31;;;;;;;17.00;11.60;;;-2.60;99.90;;;;;;5134102;27;20227;-52
2023/02/08 01:39:58;;;;;;;19.77;11.77;;;-2.70;99.90;;;;;;5126531;27;20227;-54
2023/02/08 01:42:26;;;;;;;19.47;11.93;;;-2.70;99.90;;;;;;5129294;27;20207;-50
2023/02/08 01:45:29;;;;;;;18.17;11.47;;;-2.70;99.90;;;;;;5123873;27;20206;-55
2023/02/08 01:48:06;;;;;;;21.80;12.73;;;-2.80;99.90;;;;;;5121499;27;20271;-53
2023/02/08 01:50:40;;;;;;;20.37;12.17;;;-2.70;99.90;;;;;;5140764;27;20212;-55
2023/02/08 01:53:07;;;;;;;16.40;10.97;;;-2.80;99.90;;;;;;5119019;27;20576;-57
2023/02/08 01:55:37;;;;;;;19.90;11.97;;;-2.70;99.90;;;;;;5122067;27;20227;-55
2023/02/08 01:58:09;;;;;;;19.33;12.13;;;-2.70;99.90;;;;;;5120160;27;20657;-52
2023/02/08 02:00:36;;;;;;;18.50;11.77;;;-2.70;99.90;;;;;;5113589;27;20200;-56
2023/02/08 02:03:05;;;;;;;21.60;12.07;;;-2.70;99.90;;;;;;5141979;27;20205;-55
2023/02/08 02:05:35;;;;;;;23.47;12.10;;;-2.70;99.90;;;;;;5140350;27;20215;-56
2023/02/08 02:08:02;;;;;;;19.40;12.13;;;-2.80;99.90;;;;;;5138317;27;20227;-55
2023/02/08 02:10:31;;;;;;;18.83;11.43;;;-2.90;99.90;;;;;;5140819;27;20239;-54
2023/02/08 02:13:02;;;;;;;21.37;12.43;;;-2.90;99.90;;;;;;5125140;27;20228;-55
2023/02/08 02:15:31;;;;;;;20.27;12.33;;;-2.90;99.90;;;;;;5120960;27;20215;-54
2023/02/08 02:17:57;;;;;;;19.87;12.87;;;-2.90;99.90;;;;;;5132233;27;20206;-55
2023/02/08 02:21:03;;;;;;;20.33;11.80;;;-3.00;99.90;;;;;;5129017;27;20576;-53
2023/02/08 02:23:58;;;;;;;17.97;11.17;;;-3.00;99.90;;;;;;5136993;27;20199;-53
2023/02/08 02:27:09;;;;;;;19.43;12.03;;;-3.10;99.90;;;;;;5136330;27;20232;-56
2023/02/08 02:30:06;;;;;;;19.77;11.00;;;-3.10;99.90;;;;;;5119722;27;20208;-55
2023/02/08 02:32:43;;;;;;;19.90;11.17;;;-3.20;99.90;;;;;;5131653;27;20224;-56
2023/02/08 02:35:19;;;;;;;16.17;11.23;;;-3.20;99.90;;;;;;5116590;27;20198;-55
2023/02/08 02:37:59;;;;;;;20.50;11.80;;;-3.20;99.90;;;;;;5120947;27;20216;-54
2023/02/08 02:40:33;;;;;;;18.83;11.63;;;-3.20;99.90;;;;;;5140968;27;20211;-56
2023/02/08 02:45:57;;;;;;;23.33;12.43;;;-3.10;99.90;;;;;;5103160;27;20276;-53
2023/02/08 02:48:30;;;;;;;20.33;12.30;;;-3.10;99.90;;;;;;5137589;27;20204;-57
2023/02/08 02:51:05;;;;;;;22.53;12.87;;;-3.10;99.90;;;;;;5140262;27;20208;-53
2023/02/08 02:53:37;;;;;;;17.90;11.63;;;-3.10;99.90;;;;;;5143920;27;20200;-55
2023/02/08 02:56:10;;;;;;;19.60;11.83;;;-3.10;99.90;;;;;;5133208;27;20991;-57
2023/02/08 02:58:39;;;;;;;21.23;12.33;;;-3.00;99.90;;;;;;5144049;27;20214;-56
2023/02/08 03:01:06;;;;;;;20.77;13.17;;;-3.10;99.90;;;;;;5123229;27;20318;-53
2023/02/08 03:03:35;;;;;;;21.23;12.07;;;-3.10;99.90;;;;;;5132211;27;20215;-56
2023/02/08 03:06:06;;;;;;;20.37;12.17;;;-3.10;99.90;;;;;;5139810;27;20313;-56
2023/02/08 03:09:10;;;;;;;17.83;11.40;;;-3.10;99.90;;;;;;5143732;27;20207;-55
2023/02/08 03:11:38;;;;;;;22.57;12.60;;;-3.00;99.90;;;;;;5140973;27;20216;-55
2023/02/08 03:14:22;;;;;;;20.33;11.83;;;-3.00;99.90;;;;;;5139831;27;20200;-56
2023/02/08 03:17:02;;;;;;;18.60;11.20;;;-3.00;99.90;;;;;;5134966;27;20211;-53
2023/02/08 03:19:36;;;;;;;22.37;13.30;;;-3.10;99.90;;;;;;5139326;27;20543;-56
2023/02/08 03:22:11;;;;;;;19.97;12.00;;;-3.00;99.90;;;;;;5139103;27;20187;-56
2023/02/08 03:24:45;;;;;;;25.33;13.07;;;-3.00;99.90;;;;;;5147393;27;20211;-55
2023/02/08 03:27:20;;;;;;;19.67;11.60;;;-3.00;99.90;;;;;;5122569;27;20228;-55
2023/02/08 03:29:55;;;;;;;20.77;12.17;;;-3.00;99.90;;;;;;5146219;27;20211;-50
2023/02/08 03:32:27;;;;;;;20.00;11.20;;;-3.00;99.90;;;;;;5121551;27;20295;-56
2023/02/08 03:35:00;;;;;;;19.60;12.33;;;-3.00;99.90;;;;;;5130310;27;20219;-54
2023/02/08 03:37:32;;;;;;;23.80;11.87;;;-3.00;99.90;;;;;;5141883;27;20691;-54
2023/02/08 03:40:25;;;;;;;22.20;12.33;;;-3.10;99.90;;;;;;5140109;27;20276;-54
2023/02/08 03:42:55;;;;;;;22.80;12.93;;;-3.10;99.90;;;;;;5144437;27;20260;-49
2023/02/08 03:45:24;;;;;;;23.67;12.93;;;-3.10;99.90;;;;;;5146543;27;20202;-55
2023/02/08 03:47:54;;;;;;;18.90;12.37;;;-3.10;99.90;;;;;;5124860;27;20480;-50
2023/02/08 03:50:23;;;;;;;19.87;12.23;;;-3.10;99.90;;;;;;5138191;27;20219;-53
2023/02/08 03:52:54;;;;;;;22.67;13.23;;;-3.10;99.90;;;;;;5143914;27;20750;-56
2023/02/08 03:55:24;;;;;;;22.40;12.97;;;-3.10;99.90;;;;;;5139653;27;20306;-55
2023/02/08 03:57:56;;;;;;;23.20;11.77;;;-3.10;99.90;;;;;;5128458;27;20204;-54
2023/02/08 04:00:23;;;;;;;24.20;13.37;;;-3.10;99.90;;;;;;5141834;27;20888;-54
2023/02/08 04:02:56;;;;;;;20.40;12.63;;;-3.10;99.90;;;;;;5117180;27;20222;-53
2023/02/08 04:05:24;;;;;;;20.57;12.83;;;-3.10;99.90;;;;;;5130147;27;20237;-53
2023/02/08 04:07:51;;;;;;;22.33;13.00;;;-3.10;99.90;;;;;;5146995;27;20280;-53
2023/02/08 04:10:19;;;;;;;23.87;13.87;;;-3.10;99.90;;;;;;5143539;27;20199;-51
2023/02/08 04:13:07;;;;;;;20.90;12.53;;;-3.10;99.90;;;;;;5139685;27;20697;-55
2023/02/08 04:15:34;;;;;;;23.83;12.73;;;-3.10;99.90;;;;;;5144035;27;20215;-53
2023/02/08 04:18:00;;;;;;;19.33;12.00;;;-3.20;99.90;;;;;;5140684;27;20204;-56
2023/02/08 04:20:29;;;;;;;25.93;14.10;;;-3.30;99.90;;;;;;5111984;27;20301;-50
2023/02/08 04:22:56;;;;;;;21.83;13.27;;;-3.20;99.90;;;;;;5144363;27;20187;-55
2023/02/08 04:25:23;;;;;;;21.50;12.77;;;-3.20;99.90;;;;;;5142039;27;20869;-54
2023/02/08 04:27:49;;;;;;;28.13;14.23;;;-3.20;99.90;;;;;;5139355;27;20215;-51
2023/02/08 04:30:16;;;;;;;21.57;12.13;;;-3.30;99.90;;;;;;5132036;27;20244;-52
2023/02/08 04:32:43;;;;;;;25.30;13.50;;;-3.30;99.90;;;;;;5144819;27;20226;-55
2023/02/08 04:35:09;;;;;;;22.23;13.70;;;-3.30;99.90;;;;;;5103647;27;20834;-53
2023/02/08 04:37:37;;;;;;;19.87;12.07;;;-3.30;99.90;;;;;;5143399;27;20200;-55
2023/02/08 04:40:05;;;;;;;25.17;13.57;;;-3.30;99.90;;;;;;5142912;27;20196;-54
2023/02/08 04:42:32;;;;;;;24.47;13.47;;;-3.30;99.90;;;;;;5137697;27;20207;-52
2023/02/08 04:44:59;;;;;;;23.90;13.93;;;-3.30;99.90;;;;;;5143094;27;20196;-51
2023/02/08 04:47:26;;;;;;;21.43;12.90;;;-3.30;99.90;;;;;;5143892;27;20219;-52
2023/02/08 04:49:52;;;;;;;23.90;13.90;;;-3.40;99.90;;;;;;5124095;27;20571;-52
2023/02/08 04:52:19;;;;;;;20.43;12.33;;;-3.40;99.90;;;;;;5129767;27;20208;-54
2023/02/08 04:54:47;;;;;;;23.00;13.07;;;-3.40;99.90;;;;;;5145678;27;20567;-51
2023/02/08 04:57:14;;;;;;;21.87;13.67;;;-3.40;99.90;;;;;;5135125;27;20232;-51
2023/02/08 04:59:41;;;;;;;22.17;13.30;;;-3.40;99.90;;;;;;5145909;27;20196;-55
2023/02/08 05:02:09;;;;;;;23.00;13.33;;;-3.40;99.90;;;;;;5132865;27;20272;-52
2023/02/08 05:04:36;;;;;;;26.80;13.77;;;-3.40;99.90;;;;;;5135002;27;20610;-53
2023/02/08 05:07:02;;;;;;;21.40;12.80;;;-3.40;99.90;;;;;;5123664;27;20243;-51
2023/02/08 05:09:30;;;;;;;22.40;12.67;;;-3.40;99.90;;;;;;5131972;27;20200;-52
2023/02/08 05:11:58;;;;;;;24.73;13.80;;;-3.30;99.90;;;;;;5135193;27;20212;-50
2023/02/08 05:14:25;;;;;;;24.90;13.60;;;-3.30;99.90;;;;;;5136466;27;20978;-53
2023/02/08 05:16:51;;;;;;;23.23;13.33;;;-3.30;99.90;;;;;;5138546;27;20231;-53
2023/02/08 05:19:18;;;;;;;23.53;13.03;;;-3.30;99.90;;;;;;5133792;27;20204;-52
2023/02/08 05:21:45;;;;;;;22.23;13.23;;;-3.40;99.90;;;;;;5126293;27;20202;-51
2023/02/08 05:24:12;;;;;;;22.73;13.87;;;-3.30;99.90;;;;;;5131715;27;20195;-55
2023/02/08 05:26:39;;;;;;;26.80;14.57;;;-3.30;99.90;;;;;;5144546;27;20575;-54
2023/02/08 05:29:08;;;;;;;23.90;13.30;;;-3.40;99.90;;;;;;5135968;27;20204;-53
2023/02/08 05:31:35;;;;;;;22.90;13.33;;;-3.30;99.90;;;;;;5142477;27;20231;-56
2023/02/08 05:34:02;;;;;;;25.60;13.67;;;-3.40;99.90;;;;;;5129196;27;20204;-52
2023/02/08 05:36:29;;;;;;;24.47;14.13;;;-3.40;99.90;;;;;;5121224;27;20226;-54
2023/02/08 05:39:15;;;;;;;30.20;14.17;;;-3.40;99.90;;;;;;5134220;27;20207;-53
2023/02/08 05:41:42;;;;;;;30.07;14.67;;;-3.40;99.90;;;;;;5142139;27;20192;-56
2023/02/08 05:44:10;;;;;;;23.43;14.90;;;-3.40;99.90;;;;;;5132812;27;20196;-53
2023/02/08 05:46:37;;;;;;;26.87;14.97;;;-3.30;99.90;;;;;;5132543;27;20216;-50
2023/02/08 05:49:05;;;;;;;29.43;15.23;;;-3.30;99.90;;;;;;5133166;27;20335;-52
2023/02/08 05:51:32;;;;;;;27.63;15.10;;;-3.30;99.90;;;;;;5114869;27;20560;-50
2023/02/08 05:54:00;;;;;;;25.43;14.97;;;-3.30;99.90;;;;;;5113854;27;20854;-54
2023/02/08 05:56:27;;;;;;;30.60;16.50;;;-3.30;99.90;;;;;;5137663;27;20212;-54
2023/02/08 05:58:54;;;;;;;26.73;14.77;;;-3.30;99.90;;;;;;5137147;27;20215;-54
2023/02/08 06:01:22;;;;;;;25.23;14.87;;;-3.30;99.90;;;;;;5133756;27;20200;-50
2023/02/08 06:03:48;;;;;;;27.20;15.00;;;-3.30;99.90;;;;;;5134986;27;20832;-56
2023/02/08 06:06:15;;;;;;;25.63;14.33;;;-3.30;99.90;;;;;;5130223;27;20224;-50
2023/02/08 06:08:42;;;;;;;28.30;15.13;;;-3.30;99.90;;;;;;5117613;27;20196;-56
2023/02/08 06:11:09;;;;;;;28.00;15.63;;;-3.40;99.90;;;;;;5124912;27;20299;-56
2023/02/08 06:13:35;;;;;;;26.20;15.20;;;-3.30;99.90;;;;;;5133457;27;20204;-56
2023/02/08 06:16:02;;;;;;;34.37;15.80;;;-3.30;99.90;;;;;;5134789;27;20230;-55
2023/02/08 06:18:30;;;;;;;31.37;15.73;;;-3.40;99.90;;;;;;5128734;27;20340;-54
2023/02/08 06:20:57;;;;;;;29.60;14.70;;;-3.30;99.90;;;;;;5107923;28;20314;-55
2023/02/08 06:23:25;;;;;;;24.33;14.77;;;-3.40;99.90;;;;;;5097025;27;20204;-52
2023/02/08 06:25:52;;;;;;;30.03;15.67;;;-3.40;99.90;;;;;;5110264;27;20251;-56
2023/02/08 06:28:19;;;;;;;27.93;16.10;;;-3.40;99.90;;;;;;5112696;28;20288;-54
2023/02/08 06:30:46;;;;;;;26.47;15.30;;;-3.40;99.90;;;;;;5114479;28;20196;-55
2023/02/08 06:33:33;;;;;;;27.87;16.00;;;-3.40;99.90;;;;;;5100529;28;20235;-53
2023/02/08 06:36:21;;;;;;;28.27;16.23;;;-3.40;99.90;;;;;;5110408;28;20227;-51
2023/02/08 06:38:48;;;;;;;30.50;15.73;;;-3.40;99.90;;;;;;5092428;27;20339;-55
2023/02/08 06:41:16;;;;;;;30.23;16.13;;;-3.40;99.90;;;;;;5108435;27;20225;-55
2023/02/08 06:43:43;;;;;;;30.17;16.13;;;-3.40;99.90;;;;;;5104996;27;20340;-57
2023/02/08 06:46:09;;;;;;;30.97;15.77;;;-3.40;99.90;;;;;;5108038;28;20220;-54
2023/02/08 06:48:39;;;;;;;31.20;15.93;;;-3.40;99.90;;;;;;5104785;28;20908;-54
2023/02/08 06:51:06;;;;;;;29.83;15.23;;;-3.40;99.90;;;;;;5107244;27;20201;-52
2023/02/08 06:53:32;;;;;;;34.10;17.20;;;-3.40;99.90;;;;;;5103477;27;20259;-51
2023/02/08 06:55:59;;;;;;;31.13;15.90;;;-3.40;99.90;;;;;;5095166;27;20217;-53
2023/02/08 06:58:26;;;;;;;31.40;17.00;;;-3.40;99.90;;;;;;5116399;27;20192;-50
2023/02/08 07:00:52;;;;;;;35.87;17.30;;;-3.40;99.90;;;;;;5117052;27;20316;-57
2023/02/08 07:03:21;;;;;;;32.93;16.87;;;-3.50;99.90;;;;;;5110059;27;20193;-51
2023/02/08 07:05:49;;;;;;;32.43;16.03;;;-3.40;99.90;;;;;;5112269;27;20285;-53
2023/02/08 07:08:16;;;;;;;33.60;18.27;;;-3.40;99.90;;;;;;5107312;27;20204;-53
2023/02/08 07:10:43;;;;;;;38.47;16.77;;;-3.40;99.90;;;;;;5106519;27;20227;-55
2023/02/08 07:13:29;;;;;;;34.20;16.37;;;-3.40;99.90;;;;;;5107493;27;20244;-56
2023/02/08 07:15:55;;;;;;;36.20;17.70;;;-3.40;99.90;;;;;;5114449;27;20228;-51
2023/02/08 07:18:23;;;;;;;39.00;17.90;;;-3.40;99.90;;;;;;5088104;27;20211;-54
2023/02/08 07:20:51;;;;;;;32.63;17.23;;;-3.40;99.90;;;;;;5119093;27;20633;-56
2023/02/08 07:23:18;;;;;;;32.07;17.27;;;-3.30;99.90;;;;;;5099869;27;20992;-54
2023/02/08 07:25:45;;;;;;;39.83;18.50;;;-3.30;99.90;;;;;;5095563;27;20219;-56
2023/02/08 07:28:12;;;;;;;34.60;17.57;;;-3.30;99.90;;;;;;5105470;27;20567;-51
2023/02/08 07:30:39;;;;;;;32.90;17.57;;;-3.20;99.90;;;;;;5113872;27;20689;-57
2023/02/08 07:33:06;;;;;;;32.77;16.40;;;-3.20;99.90;;;;;;5107849;27;20232;-49
2023/02/08 07:35:55;;;;;;;34.40;18.13;;;-3.20;99.90;;;;;;5112135;27;20228;-55
2023/02/08 07:38:22;;;;;;;41.60;18.23;;;-3.10;99.90;;;;;;5100726;27;20979;-56
2023/02/08 07:40:49;;;;;;;36.93;17.30;;;-3.10;99.90;;;;;;5114632;27;20712;-56
2023/02/08 07:43:16;;;;;;;39.33;18.90;;;-3.00;99.90;;;;;;5096913;27;20999;-54
2023/02/08 07:45:53;;;;;;;32.83;18.03;;;-3.00;99.90;;;;;;5099765;27;20212;-54
2023/02/08 07:48:21;;;;;;;37.53;17.43;;;-2.90;99.90;;;;;;5105741;27;20205;-53
2023/02/08 07:50:47;;;;;;;36.87;17.23;;;-2.80;99.90;;;;;;5113929;27;20205;-53
2023/02/08 07:53:15;;;;;;;33.13;17.87;;;-2.80;99.90;;;;;;5104869;27;20221;-54
2023/02/08 07:55:46;;;;;;;37.57;18.57;;;-2.80;99.90;;;;;;5106607;27;20567;-54
2023/02/08 07:58:13;;;;;;;36.07;18.03;;;-2.70;99.90;;;;;;5092457;27;20685;-51
2023/02/08 08:00:40;;;;;;;40.87;19.50;;;-2.60;99.90;;;;;;5098578;27;20216;-51
2023/02/08 08:03:08;;;;;;;36.60;17.97;;;-2.60;99.90;;;;;;5104553;27;21167;-53
2023/02/08 08:05:35;;;;;;;34.63;17.40;;;-2.50;99.90;;;;;;5101132;27;20690;-51
2023/02/08 08:08:02;;;;;;;35.93;18.47;;;-2.40;99.90;;;;;;5099473;27;20232;-55
2023/02/08 08:10:30;;;;;;;40.57;19.37;;;-2.40;99.90;;;;;;5105056;27;20227;-53
2023/02/08 08:13:15;;;;;;;36.73;18.47;;;-2.30;99.90;;;;;;5106045;27;20247;-55
2023/02/08 08:15:42;;;;;;;39.97;18.73;;;-2.20;99.90;;;;;;5110224;27;20314;-54
2023/02/08 08:18:08;;;;;;;34.63;18.80;;;-2.20;99.90;;;;;;5106970;27;20468;-53
2023/02/08 08:20:35;;;;;;;37.00;18.83;;;-2.10;99.90;;;;;;5113656;27;20658;-50
2023/02/08 08:23:03;;;;;;;35.97;18.93;;;-2.00;99.90;;;;;;5104176;27;20211;-53
2023/02/08 08:25:31;;;;;;;33.87;18.57;;;-1.90;99.90;;;;;;5109494;27;20192;-54
2023/02/08 08:27:58;;;;;;;34.17;18.20;;;-1.90;99.90;;;;;;5087114;27;20212;-52
2023/02/08 08:30:25;;;;;;;34.90;18.63;;;-1.80;99.90;;;;;;5110398;27;20209;-53
2023/02/08 08:32:52;;;;;;;35.00;18.27;;;-1.70;99.90;;;;;;5106520;27;20215;-53
2023/02/08 08:35:19;;;;;;;38.30;18.27;;;-1.60;99.90;;;;;;5113264;27;20208;-50
2023/02/08 08:37:46;;;;;;;36.47;18.60;;;-1.60;99.90;;;;;;5097931;27;20703;-50
2023/02/08 08:40:13;;;;;;;33.30;17.80;;;-1.50;99.90;;;;;;5108585;27;20193;-55
2023/02/08 08:42:41;;;;;;;36.83;19.07;;;-1.40;99.90;;;;;;5106983;27;20228;-51
2023/02/08 08:45:09;;;;;;;34.80;18.27;;;-1.30;99.90;;;;;;5099375;27;20194;-52
2023/02/08 08:47:36;;;;;;;39.80;21.33;;;-1.20;99.90;;;;;;5107119;27;20236;-51
2023/02/08 08:50:03;;;;;;;37.80;19.20;;;-1.10;99.90;;;;;;5111775;27;20284;-55
2023/02/08 08:52:30;;;;;;;37.03;19.93;;;-1.00;99.90;;;;;;5111882;27;20200;-52
2023/02/08 08:54:57;;;;;;;37.13;19.53;;;-0.70;99.90;;;;;;5103743;27;20203;-54
2023/02/08 08:57:23;;;;;;;36.60;19.37;;;-0.50;99.90;;;;;;5111232;27;20241;-53
2023/02/08 08:59:52;;;;;;;40.33;19.93;;;-0.40;99.90;;;;;;5090716;27;20678;-52
2023/02/08 09:02:37;;;;;;;36.60;19.03;;;-0.20;99.90;;;;;;5108911;27;20705;-50
2023/02/08 09:05:06;;;;;;;36.93;18.80;;;-0.10;99.90;;;;;;5107055;27;20190;-55
2023/02/08 09:07:33;;;;;;;37.37;18.47;;;-0.10;99.90;;;;;;5110602;27;20306;-52
2023/02/08 09:10:00;;;;;;;37.60;19.70;;;-0.20;99.90;;;;;;5095542;27;20218;-55
2023/02/08 09:12:27;;;;;;;39.77;19.23;;;-0.20;99.90;;;;;;5106582;27;20206;-55
2023/02/08 09:14:55;;;;;;;33.77;18.30;;;-0.20;99.90;;;;;;5093126;27;20203;-55
2023/02/08 09:17:22;;;;;;;35.13;18.67;;;-0.10;99.90;;;;;;5108458;27;20273;-52
2023/02/08 09:19:49;;;;;;;36.83;18.77;;;-0.10;99.90;;;;;;5108615;27;20237;-50
2023/02/08 09:22:16;;;;;;;39.30;19.37;;;0.00;99.90;;;;;;5106673;27;20189;-50
2023/02/08 09:24:43;;;;;;;37.93;19.57;;;0.10;99.90;;;;;;5104855;27;20733;-51
2023/02/08 09:27:10;;;;;;;34.47;18.83;;;0.10;99.90;;;;;;5105866;27;20789;-55
2023/02/08 09:29:36;;;;;;;32.93;18.80;;;0.10;99.90;;;;;;5091324;27;20207;-51
2023/02/08 09:32:05;;;;;;;36.43;19.03;;;0.20;99.90;;;;;;5104750;27;20290;-57
2023/02/08 09:34:31;;;;;;;39.93;19.77;;;0.30;99.90;;;;;;5118483;27;20219;-54
2023/02/08 09:36:58;;;;;;;35.53;18.77;;;0.40;99.90;;;;;;5114482;27;20285;-53
2023/02/08 09:39:25;;;;;;;32.83;18.00;;;0.40;99.90;;;;;;5110888;27;20195;-56
2023/02/08 09:42:11;;;;;;;34.10;18.47;;;0.60;99.90;;;;;;5108465;27;20201;-57
2023/02/08 09:44:49;;;;;;;37.13;19.27;;;0.60;99.90;;;;;;5098067;27;20218;-52
2023/02/08 09:47:22;;;;;;;32.73;17.43;;;0.70;99.90;;;;;;5112237;27;20227;-52
2023/02/08 09:49:56;;;;;;;30.67;17.13;;;0.80;99.90;;;;;;5095569;28;20200;-51
2023/02/08 09:52:27;;;;;;;28.60;15.70;;;0.80;99.90;;;;;;5105564;27;20198;-55
2023/02/08 09:54:59;;;;;;;27.87;15.37;;;0.90;99.90;;;;;;5107101;27;20253;-50
2023/02/08 09:57:30;;;;;;;41.23;15.67;;;0.90;99.90;;;;;;5098049;27;20232;-51
2023/02/08 10:00:04;;;;;;;31.80;16.63;;;1.10;99.90;;;;;;5102079;27;20286;-52
2023/02/08 10:02:34;;;;;;;30.43;15.93;;;1.30;99.90;;;;;;5106545;27;20196;-52
2023/02/08 10:05:04;;;;;;;27.93;15.53;;;1.50;99.90;;;;;;5112795;27;20189;-52
2023/02/08 10:07:34;;;;;;;28.83;14.77;;;1.60;99.90;;;;;;5105364;28;20837;-50
2023/02/08 10:10:26;;;;;;;30.67;15.90;;;1.60;99.90;;;;;;5098751;27;20325;-54
2023/02/08 10:12:58;;;;;;;30.37;15.23;;;1.60;99.90;;;;;;5109499;28;20680;-54
2023/02/08 10:15:37;;;;;;;32.87;15.23;;;1.60;99.90;;;;;;5096764;28;23795;-54
2023/02/08 10:18:33;;;;;;;26.63;14.60;;;1.70;99.90;;;;;;5106366;27;20201;-52
2023/02/08 10:21:19;;;;;;;27.37;14.93;;;1.70;99.90;;;;;;5107905;28;20574;-52
2023/02/08 10:24:05;;;;;;;24.77;15.03;;;1.70;99.90;;;;;;5117876;27;20269;-54
2023/02/08 10:26:37;;;;;;;25.90;14.43;;;1.70;99.90;;;;;;5116007;27;20212;-53
2023/02/08 10:29:31;;;;;;;25.20;13.40;;;1.80;99.90;;;;;;5104131;27;20254;-52
2023/02/08 10:32:14;;;;;;;23.27;12.30;;;1.90;99.90;;;;;;5104510;27;20208;-52
2023/02/08 10:34:47;;;;;;;21.70;11.57;;;2.00;99.90;;;;;;5107707;27;20298;-51
2023/02/08 10:37:17;;;;;;;25.30;12.80;;;2.10;99.90;;;;;;5106945;27;20219;-51
2023/02/08 10:39:45;;;;;;;19.30;12.10;;;2.10;99.90;;;;;;5123142;27;20658;-53
2023/02/08 10:42:15;;;;;;;23.13;13.37;;;2.20;99.90;;;;;;5106933;27;20212;-50
2023/02/08 10:44:53;;;;;;;27.17;14.60;;;2.30;99.90;;;;;;5110422;27;20208;-55
2023/02/08 10:47:44;;;;;;;23.70;13.97;;;2.40;99.90;;;;;;5103308;27;20285;-55
2023/02/08 10:50:35;;;;;;;19.83;11.97;;;2.40;99.90;;;;;;5109393;27;20287;-54
2023/02/08 10:53:03;;;;;;;24.87;13.20;;;2.50;99.90;;;;;;5116011;27;20196;-50
2023/02/08 10:55:41;;;;;;;23.37;13.80;;;2.50;99.90;;;;;;5114418;27;20192;-55
2023/02/08 10:58:15;;;;;;;22.73;11.90;;;2.50;99.90;;;;;;5103050;27;20685;-49
2023/02/08 11:00:44;;;;;;;23.97;12.83;;;2.50;99.90;;;;;;5111451;27;20264;-54
2023/02/08 11:03:17;;;;;;;24.87;13.10;;;2.60;99.90;;;;;;5101420;27;20204;-49
2023/02/08 11:05:46;;;;;;;22.70;12.93;;;2.60;99.90;;;;;;5117659;27;20270;-55
2023/02/08 11:08:16;;;;;;;20.13;12.67;;;2.60;99.90;;;;;;5111032;27;20245;-49
2023/02/08 11:10:54;;;;;;;27.60;13.60;;;2.70;99.90;;;;;;5118132;27;20624;-57
2023/02/08 11:13:21;;;;;;;22.60;13.23;;;2.70;99.90;;;;;;5105467;27;20212;-52
2023/02/08 11:15:51;;;;;;;24.73;13.00;;;2.80;99.90;;;;;;5114914;27;20228;-54
2023/02/08 11:18:47;;;;;;;25.63;12.63;;;2.80;99.90;;;;;;5097795;27;20224;-53
2023/02/08 11:21:24;;;;;;;23.80;12.30;;;2.80;99.90;;;;;;5116651;27;20188;-55
2023/02/08 11:23:53;;;;;;;23.10;12.73;;;2.80;99.90;;;;;;5116547;27;20554;-54
2023/02/08 11:26:24;;;;;;;24.43;13.80;;;2.90;99.90;;;;;;5110214;27;20209;-56
2023/02/08 11:29:00;;;;;;;25.80;13.93;;;2.90;99.90;;;;;;5114145;27;20208;-51
2023/02/08 11:31:27;;;;;;;30.10;14.03;;;2.90;99.90;;;;;;5109546;27;20229;-57
2023/02/08 11:34:02;;;;;;;26.10;14.20;;;2.90;99.90;;;;;;5103161;27;20224;-50
2023/02/08 11:36:32;;;;;;;24.90;13.80;;;3.00;99.90;;;;;;5113717;27;20220;-50
2023/02/08 11:39:02;;;;;;;26.73;13.03;;;3.00;99.90;;;;;;5116197;27;20834;-52
2023/02/08 11:41:29;;;;;;;24.07;14.00;;;3.00;99.90;;;;;;5110824;27;20200;-51
2023/02/08 11:43:59;;;;;;;20.83;12.57;;;3.00;99.90;;;;;;5101609;27;20207;-55
2023/02/08 11:46:29;;;;;;;23.03;12.60;;;3.10;99.90;;;;;;5108913;27;20240;-52
2023/02/08 11:48:56;;;;;;;20.93;12.30;;;3.10;99.90;;;;;;5097415;27;20205;-54
2023/02/08 11:51:27;;;;;;;21.33;12.23;;;3.10;99.90;;;;;;5101904;27;20258;-54
2023/02/08 11:53:56;;;;;;;22.80;13.00;;;3.20;99.90;;;;;;5106252;27;20209;-56
2023/02/08 11:56:26;;;;;;;21.20;11.97;;;3.20;99.90;;;;;;5106824;27;20685;-51
2023/02/08 11:59:20;;;;;;;28.57;13.80;;;3.30;99.90;;;;;;5106851;27;20260;-50
2023/02/08 12:02:28;;;;;;;27.23;14.13;;;3.40;99.90;;;;;;5101473;27;20751;-49
2023/02/08 12:04:55;;;;;;;24.33;13.30;;;3.50;99.90;;;;;;5101232;27;20209;-56
2023/02/08 12:07:30;;;;;;;28.57;13.50;;;3.50;99.90;;;;;;5104387;27;20220;-51
2023/02/08 12:10:42;;;;;;;24.93;13.20;;;3.60;99.90;;;;;;5117419;27;20654;-56
2023/02/08 12:13:25;;;;;;;26.97;13.03;;;3.70;99.90;;;;;;5102023;27;20844;-53
2023/02/08 12:16:02;;;;;;;25.43;13.33;;;3.70;99.90;;;;;;5104775;27;20225;-54
2023/02/08 12:18:53;;;;;;;22.33;12.33;;;3.70;99.90;;;;;;5105228;27;20201;-54
2023/02/08 12:21:25;;;;;;;23.37;12.60;;;3.80;99.90;;;;;;5095440;27;20855;-50
2023/02/08 12:23:54;;;;;;;21.17;12.13;;;3.80;99.90;;;;;;5115834;27;20207;-54
2023/02/08 12:26:44;;;;;;;24.40;12.43;;;3.90;99.90;;;;;;5109973;27;20292;-52
2023/02/08 12:29:26;;;;;;;19.67;11.77;;;3.90;99.90;;;;;;5103495;27;20683;-52
2023/02/08 12:32:26;;;;;;;24.97;12.43;;;3.90;99.90;;;;;;5106249;27;20735;-52
2023/02/08 12:35:06;;;;;;;23.97;12.17;;;4.00;99.90;;;;;;5105120;27;20220;-54
2023/02/08 12:40:51;;;;;;;19.87;11.60;;;4.10;99.90;;;;;;5105464;27;20961;-54
2023/02/08 12:43:41;;;;;;;19.33;11.07;;;4.10;99.90;;;;;;5110626;27;20201;-54
2023/02/08 12:46:32;;;;;;;22.13;11.37;;;4.20;99.90;;;;;;5110253;27;20228;-54
2023/02/08 12:49:28;;;;;;;21.87;11.20;;;4.30;99.90;;;;;;5112378;27;20560;-55
2023/02/08 12:52:02;;;;;;;18.87;10.33;;;4.30;99.90;;;;;;5121771;27;20559;-51
2023/02/08 12:54:35;;;;;;;19.43;11.33;;;4.30;99.90;;;;;;5086717;27;20208;-55
2023/02/08 12:57:04;;;;;;;18.97;9.67;;;4.30;99.90;;;;;;5112839;27;20235;-53
2023/02/08 12:59:37;;;;;;;23.13;10.53;;;4.30;99.90;;;;;;5107483;27;20195;-55